sensor_id;sensor_type;location;lat;lon;timestamp;pressure;altitude;pressure_sealevel;temperature;humidity
56082;BME280;41957;52.060;5.138;2022-11-23T00:01:30;99536.03;;;16.63;58.94
56082;BME280;41957;52.060;5.138;2022-11-23T00:04:00;99544.94;;;16.62;58.99
56082;BME280;41957;52.060;5.138;2022-11-23T00:06:25;99548.66;;;16.59;58.96
56082;BME280;41957;52.060;5.138;2022-11-23T00:08:52;99548.66;;;16.59;58.84
56082;BME280;41957;52.060;5.138;2022-11-23T00:11:19;99557.53;;;16.58;58.80
56082;BME280;41957;52.060;5.138;2022-11-23T00:13:45;99552.41;;;16.55;58.44
56082;BME280;41957;52.060;5.138;2022-11-23T00:16:30;99551.56;;;16.55;59.01
56082;BME280;41957;52.060;5.138;2022-11-23T00:18:57;99546.38;;;16.53;59.14
56082;BME280;41957;52.060;5.138;2022-11-23T00:21:24;99553.69;;;16.49;58.81
56082;BME280;41957;52.060;5.138;2022-11-23T00:23:50;99554.53;;;16.50;58.81
56082;BME280;41957;52.060;5.138;2022-11-23T00:26:16;99558.22;;;16.47;59.04
56082;BME280;41957;52.060;5.138;2022-11-23T00:28:42;99560.94;;;16.46;59.04
56082;BME280;41957;52.060;5.138;2022-11-23T00:31:09;99564.47;;;16.46;59.05
56082;BME280;41957;52.060;5.138;2022-11-23T00:33:35;99565.53;;;16.44;59.14
56082;BME280;41957;52.060;5.138;2022-11-23T00:36:03;99569.09;;;16.43;59.24
56082;BME280;41957;52.060;5.138;2022-11-23T00:38:29;99574.59;;;16.40;59.31
56082;BME280;41957;52.060;5.138;2022-11-23T00:41:18;99574.59;;;16.40;59.08
56082;BME280;41957;52.060;5.138;2022-11-23T00:43:44;99575.75;;;16.36;58.96
56082;BME280;41957;52.060;5.138;2022-11-23T00:46:21;99583.69;;;16.36;59.36
56082;BME280;41957;52.060;5.138;2022-11-23T00:48:48;99582.00;;;16.35;59.27
56082;BME280;41957;52.060;5.138;2022-11-23T00:51:16;99589.00;;;16.36;59.27
56082;BME280;41957;52.060;5.138;2022-11-23T00:53:43;99585.56;;;16.34;59.07
56082;BME280;41957;52.060;5.138;2022-11-23T00:56:09;99589.19;;;16.33;59.46
56082;BME280;41957;52.060;5.138;2022-11-23T00:58:35;99591.00;;;16.32;59.12
56082;BME280;41957;52.060;5.138;2022-11-23T01:01:07;99595.44;;;16.32;59.40
56082;BME280;41957;52.060;5.138;2022-11-23T01:03:33;99598.19;;;16.30;59.78
56082;BME280;41957;52.060;5.138;2022-11-23T01:06:04;99598.28;;;16.28;59.06
56082;BME280;41957;52.060;5.138;2022-11-23T01:08:30;99601.97;;;16.26;59.29
56082;BME280;41957;52.060;5.138;2022-11-23T01:11:05;99601.13;;;16.25;59.41
56082;BME280;41957;52.060;5.138;2022-11-23T01:13:31;99599.31;;;16.26;59.57
56082;BME280;41957;52.060;5.138;2022-11-23T01:15:57;99601.31;;;16.22;59.81
56082;BME280;41957;52.060;5.138;2022-11-23T01:18:23;99603.09;;;16.22;59.42
56082;BME280;41957;52.060;5.138;2022-11-23T01:20:49;99609.25;;;16.22;59.48
56082;BME280;41957;52.060;5.138;2022-11-23T01:23:14;99605.84;;;16.20;59.61
56082;BME280;41957;52.060;5.138;2022-11-23T01:25:40;99602.41;;;16.18;59.65
56082;BME280;41957;52.060;5.138;2022-11-23T01:28:05;99598.91;;;16.18;59.36
56082;BME280;41957;52.060;5.138;2022-11-23T01:30:30;99600.63;;;16.19;59.81
56082;BME280;41957;52.060;5.138;2022-11-23T01:32:56;99612.19;;;16.18;59.36
56082;BME280;41957;52.060;5.138;2022-11-23T01:35:21;99615.00;;;16.15;59.55
56082;BME280;41957;52.060;5.138;2022-11-23T01:37:46;99611.50;;;16.14;59.70
56082;BME280;41957;52.060;5.138;2022-11-23T01:40:12;99615.97;;;16.14;59.32
56082;BME280;41957;52.060;5.138;2022-11-23T01:45:34;99616.88;;;16.13;59.90
56082;BME280;41957;52.060;5.138;2022-11-23T01:48:02;99617.00;;;16.11;59.55
56082;BME280;41957;52.060;5.138;2022-11-23T01:50:29;99613.56;;;16.09;59.47
56082;BME280;41957;52.060;5.138;2022-11-23T01:52:55;99614.53;;;16.08;59.80
56082;BME280;41957;52.060;5.138;2022-11-23T01:55:21;99624.19;;;16.09;59.79
56082;BME280;41957;52.060;5.138;2022-11-23T01:57:47;99626.09;;;16.07;59.45
56082;BME280;41957;52.060;5.138;2022-11-23T02:00:13;99631.47;;;16.05;59.66
56082;BME280;41957;52.060;5.138;2022-11-23T02:02:44;99634.22;;;16.04;59.40
56082;BME280;41957;52.060;5.138;2022-11-23T02:05:13;99640.44;;;16.03;59.98
56082;BME280;41957;52.060;5.138;2022-11-23T02:07:41;99640.44;;;16.03;59.70
56082;BME280;41957;52.060;5.138;2022-11-23T02:10:07;99631.75;;;16.01;59.94
56082;BME280;41957;52.060;5.138;2022-11-23T02:12:32;99636.19;;;16.00;59.86
56082;BME280;41957;52.060;5.138;2022-11-23T02:14:58;99645.19;;;15.98;59.88
56082;BME280;41957;52.060;5.138;2022-11-23T02:17:23;99637.31;;;15.96;59.79
56082;BME280;41957;52.060;5.138;2022-11-23T02:20:14;99640.81;;;15.97;59.88
56082;BME280;41957;52.060;5.138;2022-11-23T02:28:01;99639.28;;;15.93;60.06
56082;BME280;41957;52.060;5.138;2022-11-23T02:30:28;99641.16;;;15.91;60.18
56082;BME280;41957;52.060;5.138;2022-11-23T02:32:55;99642.00;;;15.91;59.88
56082;BME280;41957;52.060;5.138;2022-11-23T02:35:20;99649.13;;;15.91;60.25
56082;BME280;41957;52.060;5.138;2022-11-23T02:37:45;99646.47;;;15.91;59.84
56082;BME280;41957;52.060;5.138;2022-11-23T02:40:29;99638.63;;;15.89;60.04
56082;BME280;41957;52.060;5.138;2022-11-23T02:42:55;99648.38;;;15.89;59.85
56082;BME280;41957;52.060;5.138;2022-11-23T02:45:30;99649.28;;;15.88;59.96
56082;BME280;41957;52.060;5.138;2022-11-23T02:47:57;99649.28;;;15.88;60.03
56082;BME280;41957;52.060;5.138;2022-11-23T02:50:23;99647.66;;;15.85;60.01
56082;BME280;41957;52.060;5.138;2022-11-23T02:52:48;99652.13;;;15.85;60.09
56082;BME280;41957;52.060;5.138;2022-11-23T02:55:13;99652.41;;;15.80;60.38
56082;BME280;41957;52.060;5.138;2022-11-23T02:57:39;99647.84;;;15.82;60.18
56082;BME280;41957;52.060;5.138;2022-11-23T03:00:05;99650.59;;;15.80;60.40
56082;BME280;41957;52.060;5.138;2022-11-23T03:02:30;99647.09;;;15.80;60.22
56082;BME280;41957;52.060;5.138;2022-11-23T03:04:55;99655.06;;;15.80;60.18
56082;BME280;41957;52.060;5.138;2022-11-23T03:07:21;99654.22;;;15.79;60.19
56082;BME280;41957;52.060;5.138;2022-11-23T03:09:46;99656.09;;;15.77;59.88
56082;BME280;41957;52.060;5.138;2022-11-23T03:12:11;99654.38;;;15.76;60.07
56082;BME280;41957;52.060;5.138;2022-11-23T03:14:37;99653.44;;;15.77;60.00
56082;BME280;41957;52.060;5.138;2022-11-23T03:17:03;99657.03;;;15.76;60.16
56082;BME280;41957;52.060;5.138;2022-11-23T03:19:29;99650.97;;;15.74;60.15
56082;BME280;41957;52.060;5.138;2022-11-23T03:21:54;99659.75;;;15.75;59.95
56082;BME280;41957;52.060;5.138;2022-11-23T03:24:20;99652.84;;;15.72;60.75
56082;BME280;41957;52.060;5.138;2022-11-23T03:26:45;99663.44;;;15.72;60.13
56082;BME280;41957;52.060;5.138;2022-11-23T03:29:10;99659.94;;;15.72;60.32
56082;BME280;41957;52.060;5.138;2022-11-23T03:31:36;99658.13;;;15.72;60.24
56082;BME280;41957;52.060;5.138;2022-11-23T03:34:01;99659.09;;;15.71;59.78
56082;BME280;41957;52.060;5.138;2022-11-23T03:36:27;99658.31;;;15.69;60.02
56082;BME280;41957;52.060;5.138;2022-11-23T03:38:52;99656.63;;;15.68;60.05
56082;BME280;41957;52.060;5.138;2022-11-23T03:41:17;99661.91;;;15.68;60.10
56082;BME280;41957;52.060;5.138;2022-11-23T03:43:42;99658.41;;;15.68;60.14
56082;BME280;41957;52.060;5.138;2022-11-23T03:46:08;99660.25;;;15.66;60.39
56082;BME280;41957;52.060;5.138;2022-11-23T03:48:33;99654.88;;;15.67;60.32
56082;BME280;41957;52.060;5.138;2022-11-23T03:50:58;99662.91;;;15.66;60.18
56082;BME280;41957;52.060;5.138;2022-11-23T03:53:24;99660.25;;;15.66;60.14
56082;BME280;41957;52.060;5.138;2022-11-23T03:55:49;99653.31;;;15.63;60.39
56082;BME280;41957;52.060;5.138;2022-11-23T03:58:14;99649.84;;;15.63;60.01
56082;BME280;41957;52.060;5.138;2022-11-23T04:00:40;99651.53;;;15.64;60.10
56082;BME280;41957;52.060;5.138;2022-11-23T04:03:05;99646.34;;;15.62;60.28
56082;BME280;41957;52.060;5.138;2022-11-23T04:05:31;99655.03;;;15.64;59.87
56082;BME280;41957;52.060;5.138;2022-11-23T04:07:56;99645.38;;;15.63;60.27
56082;BME280;41957;52.060;5.138;2022-11-23T04:10:21;99648.38;;;15.57;60.44
56082;BME280;41957;52.060;5.138;2022-11-23T04:12:51;99660.69;;;15.58;60.10
56082;BME280;41957;52.060;5.138;2022-11-23T04:15:16;99651.88;;;15.57;60.28
56082;BME280;41957;52.060;5.138;2022-11-23T04:17:42;99656.31;;;15.57;60.05
56082;BME280;41957;52.060;5.138;2022-11-23T04:20:07;99654.69;;;15.54;60.14
56082;BME280;41957;52.060;5.138;2022-11-23T04:22:33;99660.09;;;15.53;60.47
56082;BME280;41957;52.060;5.138;2022-11-23T04:24:58;99657.44;;;15.53;60.42
56082;BME280;41957;52.060;5.138;2022-11-23T04:27:23;99661.03;;;15.52;60.48
56082;BME280;41957;52.060;5.138;2022-11-23T04:29:49;99667.19;;;15.52;60.35
56082;BME280;41957;52.060;5.138;2022-11-23T04:32:14;99657.53;;;15.51;60.16
56082;BME280;41957;52.060;5.138;2022-11-23T04:34:39;99654.03;;;15.51;60.23
56082;BME280;41957;52.060;5.138;2022-11-23T04:37:05;99657.63;;;15.50;60.52
56082;BME280;41957;52.060;5.138;2022-11-23T04:39:30;99661.97;;;15.51;60.42
56082;BME280;41957;52.060;5.138;2022-11-23T04:41:55;99663.78;;;15.50;60.50
56082;BME280;41957;52.060;5.138;2022-11-23T04:44:21;99651.56;;;15.48;60.48
56082;BME280;41957;52.060;5.138;2022-11-23T04:46:46;99656.00;;;15.47;60.39
56082;BME280;41957;52.060;5.138;2022-11-23T04:49:12;99659.50;;;15.48;60.23
56082;BME280;41957;52.060;5.138;2022-11-23T04:51:37;99662.94;;;15.50;60.42
56082;BME280;41957;52.060;5.138;2022-11-23T04:54:03;99662.16;;;15.48;60.52
56082;BME280;41957;52.060;5.138;2022-11-23T04:56:28;99656.06;;;15.46;60.29
56082;BME280;41957;52.060;5.138;2022-11-23T04:58:54;99657.88;;;15.45;60.61
56082;BME280;41957;52.060;5.138;2022-11-23T05:01:19;99667.72;;;15.43;60.17
56082;BME280;41957;52.060;5.138;2022-11-23T05:03:44;99659.00;;;15.41;60.34
56082;BME280;41957;52.060;5.138;2022-11-23T05:06:10;99650.09;;;15.42;60.57
56082;BME280;41957;52.060;5.138;2022-11-23T05:08:35;99654.53;;;15.42;60.42
56082;BME280;41957;52.060;5.138;2022-11-23T05:11:01;99647.44;;;15.42;60.38
56082;BME280;41957;52.060;5.138;2022-11-23T05:13:26;99651.81;;;15.43;60.44
56082;BME280;41957;52.060;5.138;2022-11-23T05:15:51;99651.03;;;15.41;60.33
56082;BME280;41957;52.060;5.138;2022-11-23T05:18:17;99660.78;;;15.41;60.33
56082;BME280;41957;52.060;5.138;2022-11-23T05:20:42;99655.50;;;15.41;60.37
56082;BME280;41957;52.060;5.138;2022-11-23T05:23:08;99655.66;;;15.37;60.46
56082;BME280;41957;52.060;5.138;2022-11-23T05:25:34;99659.06;;;15.40;60.37
56082;BME280;41957;52.060;5.138;2022-11-23T05:27:59;99655.56;;;15.39;60.10
56082;BME280;41957;52.060;5.138;2022-11-23T05:30:24;99667.09;;;15.38;60.27
56082;BME280;41957;52.060;5.138;2022-11-23T05:32:50;99663.63;;;15.37;60.24
56082;BME280;41957;52.060;5.138;2022-11-23T05:35:15;99662.75;;;15.37;60.48
56082;BME280;41957;52.060;5.138;2022-11-23T05:37:41;99665.31;;;15.38;60.16
56082;BME280;41957;52.060;5.138;2022-11-23T05:40:07;99673.25;;;15.38;60.26
56082;BME280;41957;52.060;5.138;2022-11-23T05:42:32;99671.63;;;15.36;60.31
56082;BME280;41957;52.060;5.138;2022-11-23T05:44:58;99676.06;;;15.35;60.38
56082;BME280;41957;52.060;5.138;2022-11-23T05:47:23;99673.44;;;15.35;60.58
56082;BME280;41957;52.060;5.138;2022-11-23T05:49:48;99675.22;;;15.35;60.21
56082;BME280;41957;52.060;5.138;2022-11-23T05:52:15;99675.22;;;15.35;60.28
56082;BME280;41957;52.060;5.138;2022-11-23T05:54:40;99675.22;;;15.35;60.52
56082;BME280;41957;52.060;5.138;2022-11-23T05:57:05;99674.38;;;15.34;60.27
56082;BME280;41957;52.060;5.138;2022-11-23T05:59:31;99670.00;;;15.33;60.20
56082;BME280;41957;52.060;5.138;2022-11-23T06:01:56;99671.78;;;15.33;60.51
56082;BME280;41957;52.060;5.138;2022-11-23T06:04:22;99669.66;;;15.40;60.56
56082;BME280;41957;52.060;5.138;2022-11-23T06:06:47;99670.63;;;15.70;59.53
56082;BME280;41957;52.060;5.138;2022-11-23T06:09:13;99671.72;;;16.12;57.95
56082;BME280;41957;52.060;5.138;2022-11-23T06:11:38;99664.59;;;16.43;56.92
56082;BME280;41957;52.060;5.138;2022-11-23T06:14:03;99663.84;;;16.55;56.68
56082;BME280;41957;52.060;5.138;2022-11-23T06:16:29;99671.16;;;16.66;56.45
56082;BME280;41957;52.060;5.138;2022-11-23T06:18:54;99653.06;;;16.72;56.24
56082;BME280;41957;52.060;5.138;2022-11-23T06:21:19;99663.53;;;16.90;55.79
56082;BME280;41957;52.060;5.138;2022-11-23T06:23:48;99662.38;;;17.08;55.73
56082;BME280;41957;52.060;5.138;2022-11-23T06:26:13;99663.22;;;17.23;55.05
56082;BME280;41957;52.060;5.138;2022-11-23T06:28:39;99669.94;;;17.29;55.28
56082;BME280;41957;52.060;5.138;2022-11-23T06:31:06;99657.00;;;17.37;55.23
56082;BME280;41957;52.060;5.138;2022-11-23T06:33:34;99655.56;;;17.46;55.21
56082;BME280;41957;52.060;5.138;2022-11-23T06:36:01;99649.00;;;17.51;55.08
56082;BME280;41957;52.060;5.138;2022-11-23T06:38:27;99651.41;;;17.69;55.35
56082;BME280;41957;52.060;5.138;2022-11-23T06:40:52;99648.19;;;17.63;55.90
56082;BME280;41957;52.060;5.138;2022-11-23T06:43:21;99659.41;;;17.69;55.23
56082;BME280;41957;52.060;5.138;2022-11-23T06:45:46;99657.59;;;17.69;56.07
56082;BME280;41957;52.060;5.138;2022-11-23T06:48:11;99662.66;;;17.59;55.79
56082;BME280;41957;52.060;5.138;2022-11-23T06:50:37;99663.59;;;17.58;55.67
56082;BME280;41957;52.060;5.138;2022-11-23T06:53:03;99666.03;;;17.61;55.89
56082;BME280;41957;52.060;5.138;2022-11-23T06:55:28;99674.59;;;17.66;55.83
56082;BME280;41957;52.060;5.138;2022-11-23T06:57:55;99674.00;;;17.61;56.34
56082;BME280;41957;52.060;5.138;2022-11-23T07:00:21;99679.81;;;17.68;55.35
56082;BME280;41957;52.060;5.138;2022-11-23T07:02:53;99685.41;;;17.63;55.69
56082;BME280;41957;52.060;5.138;2022-11-23T07:05:20;99690.81;;;17.62;55.93
56082;BME280;41957;52.060;5.138;2022-11-23T07:07:45;99687.09;;;17.64;56.10
56082;BME280;41957;52.060;5.138;2022-11-23T07:10:11;99694.16;;;17.65;55.88
56082;BME280;41957;52.060;5.138;2022-11-23T07:12:37;99701.25;;;17.65;55.66
56082;BME280;41957;52.060;5.138;2022-11-23T07:15:03;99704.97;;;17.62;55.70
56082;BME280;41957;52.060;5.138;2022-11-23T07:17:28;99707.06;;;17.57;55.53
56082;BME280;41957;52.060;5.138;2022-11-23T07:19:54;99713.72;;;17.50;56.07
56082;BME280;41957;52.060;5.138;2022-11-23T07:22:19;99713.94;;;17.47;55.76
56082;BME280;41957;52.060;5.138;2022-11-23T07:24:44;99714.13;;;17.44;56.08
56082;BME280;41957;52.060;5.138;2022-11-23T07:27:10;99717.72;;;17.43;55.55
56082;BME280;41957;52.060;5.138;2022-11-23T07:29:35;99722.69;;;17.35;55.79
56082;BME280;41957;52.060;5.138;2022-11-23T07:32:00;99719.66;;;17.27;55.58
56082;BME280;41957;52.060;5.138;2022-11-23T07:34:27;99724.31;;;17.23;55.96
56082;BME280;41957;52.060;5.138;2022-11-23T07:36:52;99726.31;;;17.19;56.05
56082;BME280;41957;52.060;5.138;2022-11-23T07:39:18;99727.41;;;17.15;55.64
56082;BME280;41957;52.060;5.138;2022-11-23T07:41:43;99742.50;;;17.15;55.94
56082;BME280;41957;52.060;5.138;2022-11-23T07:44:09;99742.63;;;17.13;55.65
56082;BME280;41957;52.060;5.138;2022-11-23T07:46:34;99742.63;;;17.13;56.31
56082;BME280;41957;52.060;5.138;2022-11-23T07:49:00;99738.22;;;17.12;55.81
56082;BME280;41957;52.060;5.138;2022-11-23T07:51:27;99742.22;;;17.05;55.58
56082;BME280;41957;52.060;5.138;2022-11-23T07:53:52;99747.06;;;16.99;56.12
56082;BME280;41957;52.060;5.138;2022-11-23T07:56:18;99757.28;;;16.90;56.22
56082;BME280;41957;52.060;5.138;2022-11-23T07:58:43;99760.00;;;16.89;56.91
56082;BME280;41957;52.060;5.138;2022-11-23T08:01:08;99750.84;;;17.09;55.69
56082;BME280;41957;52.060;5.138;2022-11-23T08:03:35;99750.41;;;17.16;55.74
56082;BME280;41957;52.060;5.138;2022-11-23T08:06:00;99756.56;;;17.17;55.44
56082;BME280;41957;52.060;5.138;2022-11-23T08:08:25;99757.41;;;17.17;55.83
56082;BME280;41957;52.060;5.138;2022-11-23T08:10:51;99759.28;;;17.15;55.65
56082;BME280;41957;52.060;5.138;2022-11-23T08:13:16;99760.50;;;17.10;55.90
56082;BME280;41957;52.060;5.138;2022-11-23T08:15:41;99768.59;;;17.08;55.86
56082;BME280;41957;52.060;5.138;2022-11-23T08:18:08;99772.38;;;17.04;55.37
56082;BME280;41957;52.060;5.138;2022-11-23T08:20:33;99766.31;;;17.02;55.32
56082;BME280;41957;52.060;5.138;2022-11-23T08:22:59;99767.59;;;16.95;55.54
56082;BME280;41957;52.060;5.138;2022-11-23T08:25:26;99766.09;;;16.91;55.72
56082;BME280;41957;52.060;5.138;2022-11-23T08:28:09;99777.31;;;16.96;55.81
56082;BME280;41957;52.060;5.138;2022-11-23T08:30:35;99770.00;;;17.00;55.48
56082;BME280;41957;52.060;5.138;2022-11-23T08:33:07;99776.38;;;17.11;55.34
56082;BME280;41957;52.060;5.138;2022-11-23T08:35:33;99757.97;;;17.23;55.28
56082;BME280;41957;52.060;5.138;2022-11-23T08:38:00;99754.56;;;17.20;55.10
56082;BME280;41957;52.060;5.138;2022-11-23T08:40:26;99758.72;;;17.25;54.98
56082;BME280;41957;52.060;5.138;2022-11-23T08:42:51;99756.81;;;17.27;54.82
56082;BME280;41957;52.060;5.138;2022-11-23T08:45:16;99760.44;;;17.26;54.90
56082;BME280;41957;52.060;5.138;2022-11-23T08:47:42;99753.13;;;17.29;54.77
56082;BME280;41957;52.060;5.138;2022-11-23T08:50:07;99756.25;;;17.36;55.09
56082;BME280;41957;52.060;5.138;2022-11-23T08:52:33;99749.72;;;17.41;54.46
56082;BME280;41957;52.060;5.138;2022-11-23T08:54:58;99761.00;;;17.45;55.09
56082;BME280;41957;52.060;5.138;2022-11-23T08:57:23;99752.44;;;17.54;54.96
56082;BME280;41957;52.060;5.138;2022-11-23T08:59:49;99755.94;;;17.69;54.71
56082;BME280;41957;52.060;5.138;2022-11-23T09:02:14;99752.09;;;17.73;54.93
56082;BME280;41957;52.060;5.138;2022-11-23T09:04:40;99750.41;;;17.72;54.51
56082;BME280;41957;52.060;5.138;2022-11-23T09:07:06;99751.38;;;17.71;54.45
56082;BME280;41957;52.060;5.138;2022-11-23T09:09:31;99760.09;;;17.73;54.55
56082;BME280;41957;52.060;5.138;2022-11-23T09:11:57;99756.56;;;17.73;54.26
56082;BME280;41957;52.060;5.138;2022-11-23T09:14:22;99747.56;;;17.75;54.53
56082;BME280;41957;52.060;5.138;2022-11-23T09:16:48;99749.38;;;17.75;54.30
56082;BME280;41957;52.060;5.138;2022-11-23T09:19:13;99741.88;;;17.81;53.81
56082;BME280;41957;52.060;5.138;2022-11-23T09:21:38;99738.38;;;17.81;53.67
56082;BME280;41957;52.060;5.138;2022-11-23T09:24:06;99739.09;;;17.83;54.05
56082;BME280;41957;52.060;5.138;2022-11-23T09:26:32;99742.63;;;17.83;53.86
56082;BME280;41957;52.060;5.138;2022-11-23T09:28:58;99732.75;;;17.85;53.93
56082;BME280;41957;52.060;5.138;2022-11-23T09:31:24;99734.56;;;17.85;53.47
56082;BME280;41957;52.060;5.138;2022-11-23T09:33:54;99729.44;;;17.82;53.69
56082;BME280;41957;52.060;5.138;2022-11-23T09:36:19;99720.28;;;17.86;54.15
56082;BME280;41957;52.060;5.138;2022-11-23T09:38:49;99723.81;;;17.86;54.34
56082;BME280;41957;52.060;5.138;2022-11-23T09:52:29;99697.53;;;17.82;54.72
56082;BME280;41957;52.060;5.138;2022-11-23T09:54:58;99699.06;;;17.72;54.17
56082;BME280;41957;52.060;5.138;2022-11-23T09:57:29;99692.69;;;17.74;54.47
56082;BME280;41957;52.060;5.138;2022-11-23T10:00:03;99682.34;;;17.70;54.70
56082;BME280;41957;52.060;5.138;2022-11-23T10:02:31;99680.66;;;17.69;54.96
56082;BME280;41957;52.060;5.138;2022-11-23T10:05:00;99678.00;;;17.69;54.54
56082;BME280;41957;52.060;5.138;2022-11-23T10:07:45;99681.78;;;17.64;54.44
56082;BME280;41957;52.060;5.138;2022-11-23T10:13:29;99680.69;;;17.54;54.19
56082;BME280;41957;52.060;5.138;2022-11-23T10:19:10;99678.50;;;17.47;54.09
56082;BME280;41957;52.060;5.138;2022-11-23T10:22:02;99680.19;;;17.35;54.19
56082;BME280;41957;52.060;5.138;2022-11-23T10:24:35;99681.31;;;17.31;54.53
56082;BME280;41957;52.060;5.138;2022-11-23T10:27:02;99692.03;;;17.29;54.71
56082;BME280;41957;52.060;5.138;2022-11-23T10:29:34;99699.34;;;17.26;54.12
56082;BME280;41957;52.060;5.138;2022-11-23T10:31:59;99698.47;;;17.25;54.41
56082;BME280;41957;52.060;5.138;2022-11-23T10:37:00;99685.69;;;17.17;54.28
56082;BME280;41957;52.060;5.138;2022-11-23T10:39:27;99688.53;;;17.14;54.34
56082;BME280;41957;52.060;5.138;2022-11-23T10:41:53;99694.81;;;17.13;54.76
56082;BME280;41957;52.060;5.138;2022-11-23T10:44:36;99694.25;;;17.08;54.29
56082;BME280;41957;52.060;5.138;2022-11-23T10:47:03;99700.41;;;17.09;54.81
56082;BME280;41957;52.060;5.138;2022-11-23T10:49:30;99699.56;;;17.08;54.30
56082;BME280;41957;52.060;5.138;2022-11-23T10:52:01;99697.84;;;17.07;54.51
56082;BME280;41957;52.060;5.138;2022-11-23T10:54:39;99685.63;;;17.05;54.67
56082;BME280;41957;52.060;5.138;2022-11-23T10:57:33;99691.00;;;17.03;54.43
56082;BME280;41957;52.060;5.138;2022-11-23T11:02:48;99694.69;;;17.01;54.67
56082;BME280;41957;52.060;5.138;2022-11-23T11:07:52;99686.09;;;16.97;54.88
56082;BME280;41957;52.060;5.138;2022-11-23T11:10:47;99684.19;;;16.99;54.53
56082;BME280;41957;52.060;5.138;2022-11-23T11:16:20;99690.63;;;16.95;54.62
56082;BME280;41957;52.060;5.138;2022-11-23T11:18:46;99684.47;;;16.94;54.78
56082;BME280;41957;52.060;5.138;2022-11-23T11:21:20;99689.78;;;16.94;54.82
56082;BME280;41957;52.060;5.138;2022-11-23T11:23:58;99681.91;;;16.93;54.74
56082;BME280;41957;52.060;5.138;2022-11-23T11:26:26;99675.84;;;16.91;54.96
56082;BME280;41957;52.060;5.138;2022-11-23T11:28:53;99677.72;;;16.89;54.88
56082;BME280;41957;52.060;5.138;2022-11-23T11:31:36;99673.56;;;16.85;54.77
56082;BME280;41957;52.060;5.138;2022-11-23T11:36:37;99647.03;;;16.85;55.95
56082;BME280;41957;52.060;5.138;2022-11-23T11:39:12;99641.91;;;16.82;55.86
56082;BME280;41957;52.060;5.138;2022-11-23T11:41:40;99638.41;;;16.81;56.40
56082;BME280;41957;52.060;5.138;2022-11-23T11:44:16;99637.63;;;16.93;56.19
56082;BME280;41957;52.060;5.138;2022-11-23T11:46:48;99614.97;;;17.16;55.54
56082;BME280;41957;52.060;5.138;2022-11-23T11:49:21;99609.13;;;17.24;55.37
56082;BME280;41957;52.060;5.138;2022-11-23T11:52:10;99606.94;;;17.31;55.41
56082;BME280;41957;52.060;5.138;2022-11-23T11:55:12;99598.34;;;17.40;55.75
56082;BME280;41957;52.060;5.138;2022-11-23T11:57:45;99605.97;;;17.59;54.99
56082;BME280;41957;52.060;5.138;2022-11-23T12:00:15;99597.41;;;17.68;55.81
56082;BME280;41957;52.060;5.138;2022-11-23T12:02:54;99599.97;;;17.70;56.38
56082;BME280;41957;52.060;5.138;2022-11-23T12:05:43;99603.16;;;17.75;57.19
56082;BME280;41957;52.060;5.138;2022-11-23T12:08:32;99595.09;;;17.76;57.86
56082;BME280;41957;52.060;5.138;2022-11-23T12:10:59;99595.28;;;17.73;57.69
56082;BME280;41957;52.060;5.138;2022-11-23T12:13:33;99594.84;;;17.66;57.54
56082;BME280;41957;52.060;5.138;2022-11-23T12:18:59;99584.41;;;17.63;57.27
56082;BME280;41957;52.060;5.138;2022-11-23T12:21:35;99589.38;;;17.55;56.96
56082;BME280;41957;52.060;5.138;2022-11-23T12:37:42;99583.81;;;17.46;56.94
56082;BME280;41957;52.060;5.138;2022-11-23T12:40:32;99577.97;;;17.40;57.08
56082;BME280;41957;52.060;5.138;2022-11-23T12:43:21;99586.81;;;17.41;57.47
56082;BME280;41957;52.060;5.138;2022-11-23T12:45:49;99579.13;;;17.36;57.11
56082;BME280;41957;52.060;5.138;2022-11-23T12:51:16;99570.06;;;17.26;57.91
56082;BME280;41957;52.060;5.138;2022-11-23T12:53:57;99574.53;;;17.26;58.07
56082;BME280;41957;52.060;5.138;2022-11-23T12:58:59;99568.09;;;17.15;58.30
56082;BME280;41957;52.060;5.138;2022-11-23T13:01:31;99566.47;;;17.13;58.29
56082;BME280;41957;52.060;5.138;2022-11-23T13:18:21;99571.16;;;16.95;58.93
56082;BME280;41957;52.060;5.138;2022-11-23T13:23:36;99587.28;;;16.92;58.90
56082;BME280;41957;52.060;5.138;2022-11-23T13:28:36;99597.25;;;16.88;59.14
56082;BME280;41957;52.060;5.138;2022-11-23T13:33:44;99604.56;;;16.85;59.07
56082;BME280;41957;52.060;5.138;2022-11-23T13:38:59;99599.63;;;16.79;59.43
56082;BME280;41957;52.060;5.138;2022-11-23T13:43:56;99599.03;;;16.73;59.25
56082;BME280;41957;52.060;5.138;2022-11-23T13:46:25;99606.44;;;16.68;59.32
56082;BME280;41957;52.060;5.138;2022-11-23T13:48:58;99608.25;;;16.68;59.63
56082;BME280;41957;52.060;5.138;2022-11-23T14:07:03;99624.44;;;16.49;59.97
56082;BME280;41957;52.060;5.138;2022-11-23T14:14:50;99652.94;;;16.45;60.00
56082;BME280;41957;52.060;5.138;2022-11-23T14:17:23;99652.28;;;16.42;59.96
56082;BME280;41957;52.060;5.138;2022-11-23T14:28:06;99640.72;;;16.28;60.08
56082;BME280;41957;52.060;5.138;2022-11-23T14:34:13;99642.97;;;16.20;60.43
56082;BME280;41957;52.060;5.138;2022-11-23T14:37:00;99650.31;;;16.15;60.70
56082;BME280;41957;52.060;5.138;2022-11-23T14:42:16;99654.97;;;16.12;60.89
56082;BME280;41957;52.060;5.138;2022-11-23T14:44:43;99649.84;;;16.09;60.73
56082;BME280;41957;52.060;5.138;2022-11-23T14:47:09;99654.28;;;16.08;61.06
56082;BME280;41957;52.060;5.138;2022-11-23T14:49:48;99663.94;;;16.09;60.86
56082;BME280;41957;52.060;5.138;2022-11-23T14:52:18;99655.25;;;16.07;61.21
56082;BME280;41957;52.060;5.138;2022-11-23T14:54:49;99668.50;;;16.07;61.38
56082;BME280;41957;52.060;5.138;2022-11-23T14:57:15;99668.50;;;16.07;61.43
56082;BME280;41957;52.060;5.138;2022-11-23T14:59:40;99674.66;;;16.08;61.25
56082;BME280;41957;52.060;5.138;2022-11-23T15:02:19;99678.34;;;16.05;61.67
56082;BME280;41957;52.060;5.138;2022-11-23T15:05:10;99667.91;;;16.02;61.62
56082;BME280;41957;52.060;5.138;2022-11-23T15:07:45;99673.38;;;15.99;61.16
56082;BME280;41957;52.060;5.138;2022-11-23T15:13:00;99677.25;;;15.93;61.21